createdAt,value
2022-08-17T09:41:12.716Z,26
2022-08-17T09:51:13.054Z,25.8
2022-08-17T10:01:14.036Z,26
2022-08-17T10:31:34.532Z,26
2022-08-17T10:31:37.866Z,26
2022-08-17T10:51:23.877Z,26
2022-08-17T11:01:24.757Z,25.8
2022-08-17T11:21:25.323Z,25.7
2022-08-17T11:31:38.148Z,25.5
2022-08-17T11:51:26.775Z,25.1
2022-08-17T12:01:26.861Z,24.9
2022-08-17T12:21:27.967Z,24.9
2022-08-17T12:31:28.394Z,24.8
2022-08-17T12:41:28.978Z,24.6
2022-08-17T12:51:29.492Z,24.3
2022-08-17T13:01:30.487Z,24.3
2022-08-17T13:11:30.618Z,24.8
2022-08-17T13:21:31.447Z,24.9
2022-08-17T13:31:31.856Z,25.4
2022-08-17T13:41:32.410Z,25.3
2022-08-17T13:51:33.285Z,26.1
2022-08-17T14:01:33.692Z,25.6
2022-08-17T14:11:34.350Z,25
2022-08-17T14:21:35.080Z,25.1
2022-08-17T14:31:37.647Z,25.1
2022-08-17T14:51:37.047Z,25.7
2022-08-17T15:01:37.996Z,25.5
2022-08-17T15:11:39.013Z,25.6
2022-08-17T15:21:39.378Z,25.4
2022-08-17T15:41:40.359Z,25.1
2022-08-17T15:51:41.265Z,24.9
2022-08-17T16:02:33.677Z,24.9
2022-08-17T16:11:42.884Z,24.9
2022-08-17T16:21:43.556Z,25.1
2022-08-17T16:41:45.211Z,24.8
2022-08-17T16:51:45.494Z,24.8
2022-08-17T17:01:45.646Z,24.9
2022-08-17T17:11:45.893Z,24.5
2022-08-17T17:21:46.601Z,24.4
2022-08-17T17:41:46.901Z,23.9
2022-08-17T17:51:58.041Z,23.7
2022-08-17T18:01:47.499Z,23.6
2022-08-17T18:11:48.693Z,23.5
2022-08-17T18:31:49.161Z,22.9
2022-08-17T18:41:49.837Z,22.6
2022-08-17T18:51:50.913Z,22.4
2022-08-17T19:01:52.327Z,22.2
2022-08-17T19:11:52.649Z,21.9
2022-08-17T19:21:53.417Z,21.7
2022-08-17T19:31:53.985Z,21.5
2022-08-17T19:41:54.983Z,21.3
2022-08-17T19:51:55.840Z,21.1
2022-08-17T20:01:56.756Z,20.9
2022-08-17T20:11:57.592Z,20.6
2022-08-17T20:21:57.846Z,20.5
2022-08-17T20:31:58.157Z,20.3
2022-08-17T20:42:02.546Z,20.1
2022-08-17T20:52:01.062Z,20.1
2022-08-17T21:01:59.964Z,20
2022-08-17T21:12:02.594Z,19.9
2022-08-17T21:22:01.425Z,19.7
2022-08-17T21:32:02.245Z,19.5
2022-08-17T21:42:02.627Z,19.4
2022-08-17T21:52:03.389Z,19.3
2022-08-17T22:02:04.381Z,19.1
2022-08-17T22:12:05.443Z,18.9
2022-08-17T22:22:05.933Z,18.8
2022-08-17T22:32:06.120Z,18.8
2022-08-17T22:42:06.705Z,18.6
2022-08-17T23:02:07.863Z,18.4
2022-08-17T23:12:08.362Z,18.3
2022-08-17T23:22:09.060Z,18.3
2022-08-17T23:32:09.711Z,18.1
2022-08-17T23:42:10.078Z,17.9
